Beechworth, Victoria

6:25 AM AEDT on March 27, 2015 (GMT +1100)
Wooragee | Change Station
CLOSE
Current Station
Personal Weather Station
Location: Wooragee, VICTORIA
Elevation: 1125 ft
Nearby Weather Stations

Elev 1125 ft 36.30 °S, 146.69 °E | Updated 23 seconds ago

Overcast
Overcast
50.0 °F
Feels Like 50.0 °F
N
2.0
Wind Variable Wind from ENE
Gusts 5.0 mph

Today
High -- | Low -- °F
--% Chance of Precip.
Yesterday
High -- | Low -- °F
Precip. -- in
7:21 AM 7:15 PM
Waxing Crescent, 45% visible
Pressure 30.15 in
Visibility 6.2 miles
Clouds Overcast 2200 ft
Dew Point 44 °F
Humidity 81%
Rainfall 0.00 in
Snow Depth Not available.
UV 0 out of 12
Pollen Not available.
Air Quality Not available.
Flu Activity Not available.
SPECI YMAY 261900Z AUTO 33006KT 9999 // OVC022 11/06 Q1021

More Conditions Fewer Conditions

Pressure 30.15 in
Visibility 6.2 miles
Clouds Overcast 2200 ft
Dew Point 44 °F
Humidity 81%
Rainfall 0.00 in
Snow Depth Not available.
UV 0 out of 12
Pollen Not available.
Air Quality Not available.
Flu Activity Not available.
SPECI YMAY 261900Z AUTO 33006KT 9999 // OVC022 11/06 Q1021

More Conditions Fewer Conditions

10-Day Weather Forecast

Almanac

Astronomy

Mar. 27, 2015 Rise Set
Actual Time
Civil Twilight
Nautical Twilight
Astronomical Twilight
Moon
Length of Visible Light
Length of Day
Tomorrow will be .
, % of the Moon is Illuminated

Today's Extremes

Country Highs Country Lows

Community

WunderPhotos

Upload Photos

1,808,605 photos uploaded!

WunderBlogs® & News

Nearby

Air Quality

  Air Quality AQ Index Pollutant
Not available.

Snow Depth

Station Depth Elevation

Earthquake Activity

City Distance Mag. Time & Date
Minimum magnitude displayed is 2.5.

Coastal Water Temperatures

Place Temperature

Stations

Nearby Weather Stations

Station Location Temp. Windchill Dew Point Humidity Wind Precip. Elev Updated Type